createdAt,value
2022-10-17T00:01:07.666Z,22.74
2022-10-17T00:06:12.943Z,22.71
2022-10-17T00:11:17.386Z,22.67
2022-10-17T00:16:24.377Z,22.65
2022-10-17T00:21:28.392Z,22.62
2022-10-17T00:26:31.022Z,22.58
2022-10-17T00:31:33.688Z,22.53
2022-10-17T00:36:38.236Z,22.50
2022-10-17T00:41:40.905Z,22.54
2022-10-17T00:46:43.549Z,22.47
2022-10-17T00:51:48.586Z,22.46
2022-10-17T00:56:51.261Z,22.41
2022-10-17T01:01:55.502Z,22.41
2022-10-17T01:06:59.525Z,22.37
2022-10-17T01:12:05.274Z,22.34
2022-10-17T01:17:12.020Z,22.31
2022-10-17T01:22:17.512Z,22.24
2022-10-17T01:27:45.054Z,22.28
2022-10-17T01:32:50.635Z,22.19
2022-10-17T01:37:56.910Z,22.18
2022-10-17T01:43:01.313Z,22.13
2022-10-17T01:48:08.533Z,22.14
2022-10-17T01:53:13.529Z,22.10
2022-10-17T01:58:19.905Z,22.10
2022-10-17T02:03:24.169Z,22.06
2022-10-17T02:08:27.613Z,22.03
2022-10-17T02:13:36.949Z,22.02
2022-10-17T02:18:58.710Z,22.00
2022-10-17T02:24:05.911Z,21.97
2022-10-17T02:29:10.691Z,21.92
2022-10-17T02:34:17.150Z,21.91
2022-10-17T02:39:23.267Z,21.91
2022-10-17T02:44:26.049Z,21.89
2022-10-17T02:49:39.753Z,21.82
2022-10-17T02:54:43.870Z,21.80
2022-10-17T02:59:46.625Z,21.80
2022-10-17T03:04:51.166Z,21.78
2022-10-17T03:09:53.875Z,21.76
2022-10-17T03:14:56.877Z,21.76
2022-10-17T03:20:01.251Z,21.70
2022-10-17T03:25:06.335Z,21.65
2022-10-17T03:30:11.848Z,21.65
2022-10-17T03:35:16.242Z,21.65
2022-10-17T03:40:23.206Z,21.60
2022-10-17T03:45:26.240Z,21.59
2022-10-17T03:50:30.630Z,21.57
2022-10-17T03:55:34.687Z,21.59
2022-10-17T04:00:37.916Z,21.56
2022-10-17T04:05:42.386Z,21.56
2022-10-17T04:10:45.125Z,21.51
2022-10-17T04:15:55.037Z,21.50
2022-10-17T04:20:59.267Z,21.50
2022-10-17T04:26:03.322Z,21.50
2022-10-17T04:31:07.531Z,21.46
2022-10-17T04:36:22.883Z,21.46
2022-10-17T04:41:25.841Z,21.43
2022-10-17T04:46:28.551Z,21.43
2022-10-17T04:51:32.672Z,21.42
2022-10-17T04:57:10.457Z,21.41
2022-10-17T05:02:15.033Z,21.38
2022-10-17T05:07:19.201Z,21.37
2022-10-17T05:12:28.212Z,21.35
2022-10-17T05:17:31.111Z,21.34
2022-10-17T05:22:38.306Z,21.33
2022-10-17T05:27:44.311Z,21.32
2022-10-17T05:32:47.156Z,21.31
2022-10-17T05:37:51.280Z,21.32
2022-10-17T05:42:55.703Z,21.29
2022-10-17T05:47:59.723Z,21.27
2022-10-17T05:53:03.886Z,21.27
2022-10-17T05:58:09.782Z,21.27
2022-10-17T06:03:20.261Z,21.26
2022-10-17T06:08:24.363Z,21.28
2022-10-17T06:13:27.169Z,21.31
2022-10-17T06:18:30.891Z,21.29
2022-10-17T06:23:35.688Z,21.30
2022-10-17T06:28:50.491Z,21.31
2022-10-17T06:33:54.554Z,21.32
2022-10-17T06:38:58.652Z,21.34
2022-10-17T06:44:11.176Z,21.35
2022-10-17T06:49:46.087Z,21.37
2022-10-17T06:54:58.622Z,21.37
2022-10-17T07:00:16.463Z,21.42
2022-10-17T07:05:25.075Z,21.13
2022-10-17T07:10:29.242Z,20.89
2022-10-17T07:15:32.428Z,20.78
2022-10-17T07:20:35.806Z,20.67
2022-10-17T07:25:40.413Z,20.68
2022-10-17T07:30:47.485Z,20.58
2022-10-17T07:35:53.728Z,20.46
2022-10-17T07:40:58.416Z,20.42
2022-10-17T07:46:01.698Z,20.39
2022-10-17T07:51:05.627Z,20.39
2022-10-17T07:56:10.429Z,20.38
2022-10-17T08:01:15.616Z,20.39
2022-10-17T08:06:18.978Z,20.39
2022-10-17T08:11:23.218Z,20.38
2022-10-17T08:16:25.851Z,20.38
2022-10-17T08:21:28.524Z,20.34
2022-10-17T08:26:32.633Z,20.41
2022-10-17T08:31:35.310Z,20.42
2022-10-17T08:36:38.019Z,20.41
2022-10-17T08:41:50.381Z,20.40
2022-10-17T08:46:54.477Z,20.41
2022-10-17T08:51:59.942Z,20.44
2022-10-17T08:57:03.957Z,20.48
2022-10-17T09:02:17.141Z,20.54
2022-10-17T09:07:21.676Z,20.60
2022-10-17T09:12:28.208Z,20.67
2022-10-17T09:17:36.266Z,20.71
2022-10-17T09:22:40.396Z,20.74
2022-10-17T09:27:46.482Z,20.81
2022-10-17T09:32:49.267Z,20.85
2022-10-17T09:37:51.887Z,20.89
2022-10-17T09:42:56.078Z,20.95
2022-10-17T09:48:02.171Z,20.98
2022-10-17T09:53:08.560Z,21.04
2022-10-17T09:58:12.755Z,21.14
2022-10-17T10:03:17.624Z,21.19
2022-10-17T10:08:20.401Z,21.24
2022-10-17T10:13:24.880Z,21.23
2022-10-17T10:23:33.840Z,21.35
2022-10-17T10:28:38.573Z,21.45
2022-10-17T10:33:45.918Z,21.53
2022-10-17T10:38:53.809Z,21.56
2022-10-17T10:43:57.911Z,21.64
2022-10-17T10:54:06.046Z,21.73
2022-10-17T10:59:14.092Z,21.81
2022-10-17T11:04:23.048Z,21.83
2022-10-17T11:09:32.861Z,21.88
2022-10-17T11:14:43.745Z,21.91
2022-10-17T11:19:49.478Z,21.91
2022-10-17T11:24:57.031Z,21.95
2022-10-17T11:30:00.994Z,21.99
2022-10-17T11:35:05.337Z,22.00
2022-10-17T11:40:11.510Z,22.13
2022-10-17T11:45:16.903Z,22.12
2022-10-17T11:55:45.746Z,22.17
2022-10-17T12:00:57.743Z,22.16
2022-10-17T12:06:04.746Z,22.16
2022-10-17T12:11:10.491Z,22.19
2022-10-17T12:16:38.951Z,22.48
2022-10-17T12:21:58.994Z,22.53
2022-10-17T12:27:23.375Z,22.55
2022-10-17T12:32:30.281Z,22.59
2022-10-17T12:38:04.485Z,22.60
2022-10-17T12:43:58.510Z,22.58
2022-10-17T12:49:24.496Z,22.50
2022-10-17T12:54:27.185Z,22.55
2022-10-17T12:59:30.340Z,22.55
2022-10-17T13:04:34.501Z,22.57
2022-10-17T13:09:38.694Z,22.62
2022-10-17T13:14:42.199Z,22.63
2022-10-17T13:19:46.955Z,22.79
2022-10-17T13:24:50.099Z,22.66
2022-10-17T13:29:52.897Z,22.84
2022-10-17T13:35:10.719Z,22.86
2022-10-17T13:40:40.244Z,22.95
2022-10-17T13:45:39.960Z,22.95
2022-10-17T13:50:44.958Z,22.84
2022-10-17T13:56:22.946Z,22.72
2022-10-17T14:01:21.547Z,22.70
2022-10-17T14:06:25.579Z,22.74
2022-10-17T14:11:34.944Z,22.79
2022-10-17T14:16:40.002Z,22.72
2022-10-17T14:21:44.910Z,22.67
2022-10-17T14:26:48.421Z,22.64
2022-10-17T14:31:53.645Z,22.68
2022-10-17T14:36:57.804Z,22.67
2022-10-17T14:42:04.271Z,22.69
2022-10-17T14:47:38.048Z,22.72
2022-10-17T14:52:33.127Z,22.78
2022-10-17T14:57:42.893Z,22.81
2022-10-17T15:02:45.941Z,22.86
2022-10-17T15:07:49.927Z,22.89
2022-10-17T15:12:59.158Z,22.92
2022-10-17T15:18:07.267Z,22.95
2022-10-17T15:23:11.301Z,22.94
2022-10-17T15:28:13.930Z,22.97
2022-10-17T15:33:16.612Z,22.96
2022-10-17T15:38:20.573Z,22.93
2022-10-17T15:43:23.285Z,22.93
2022-10-17T15:48:28.567Z,22.89
2022-10-17T15:53:32.580Z,22.86
2022-10-17T15:58:37.510Z,22.81
2022-10-17T16:03:40.573Z,22.70
2022-10-17T16:08:44.996Z,22.68
2022-10-17T16:13:51.785Z,22.66
2022-10-17T16:18:54.628Z,22.72
2022-10-17T16:23:58.777Z,22.66
2022-10-17T16:29:03.266Z,22.67
2022-10-17T16:34:06.642Z,22.67
2022-10-17T16:39:10.889Z,22.68
2022-10-17T16:44:15.703Z,22.68
2022-10-17T16:49:18.622Z,22.71
2022-10-17T16:54:22.663Z,22.75
2022-10-17T16:59:25.526Z,22.77
2022-10-17T17:04:28.392Z,22.79
2022-10-17T17:09:32.481Z,22.83
2022-10-17T17:14:35.358Z,22.85
2022-10-17T17:19:38.045Z,22.87
2022-10-17T17:24:42.217Z,22.90
2022-10-17T17:29:44.981Z,22.90
2022-10-17T17:34:47.938Z,22.90
2022-10-17T17:39:51.951Z,22.92
2022-10-17T17:44:54.659Z,22.96
2022-10-17T17:49:57.393Z,22.98
2022-10-17T17:55:01.450Z,22.99
2022-10-17T18:00:04.822Z,23.02
2022-10-17T18:05:08.641Z,23.05
2022-10-17T18:15:18.324Z,23.06
2022-10-17T18:20:21.079Z,23.07
2022-10-17T18:25:25.272Z,23.09
2022-10-17T18:30:28.960Z,23.09
2022-10-17T18:35:35.438Z,23.09
2022-10-17T18:40:39.451Z,23.16
2022-10-17T18:45:42.419Z,23.17
2022-10-17T18:50:45.232Z,23.20
2022-10-17T18:55:49.266Z,23.21
2022-10-17T19:00:51.958Z,23.24
2022-10-17T19:05:56.705Z,23.25
2022-10-17T19:11:07.286Z,23.28
2022-10-17T19:16:11.175Z,23.26
2022-10-17T19:21:16.030Z,23.27
2022-10-17T19:26:23.382Z,23.32
2022-10-17T19:31:27.263Z,23.32
2022-10-17T19:36:33.634Z,23.35
2022-10-17T19:41:37.859Z,23.34
2022-10-17T19:46:40.668Z,23.33
2022-10-17T19:51:43.442Z,23.34
2022-10-17T19:56:47.461Z,23.38
2022-10-17T20:01:50.271Z,23.37
2022-10-17T20:06:53.064Z,23.39
2022-10-17T20:11:57.061Z,23.41
2022-10-17T20:16:59.769Z,23.44
2022-10-17T20:22:02.484Z,23.46
2022-10-17T20:27:06.572Z,23.45
2022-10-17T20:32:09.360Z,23.41
2022-10-17T20:37:12.012Z,23.47
2022-10-17T20:42:16.120Z,23.49
2022-10-17T20:47:33.139Z,23.50
2022-10-17T20:52:41.508Z,23.53
2022-10-17T20:57:45.666Z,23.54
2022-10-17T21:02:48.543Z,23.55
2022-10-17T21:07:51.245Z,23.55
2022-10-17T21:12:55.769Z,23.46
2022-10-17T21:17:58.645Z,23.51
2022-10-17T21:23:01.347Z,23.55
2022-10-17T21:28:05.497Z,23.58
2022-10-17T21:33:08.485Z,23.49
2022-10-17T21:38:11.224Z,23.49
2022-10-17T21:43:15.271Z,23.45
2022-10-17T21:48:18.065Z,23.42
2022-10-17T21:53:20.753Z,23.39
2022-10-17T21:58:24.789Z,23.32
2022-10-17T22:03:27.441Z,23.27
2022-10-17T22:08:30.198Z,23.24
2022-10-17T22:13:34.213Z,23.22
2022-10-17T22:18:36.909Z,23.21
2022-10-17T22:23:39.564Z,23.18
2022-10-17T22:28:43.608Z,23.19
2022-10-17T22:33:46.468Z,23.14
2022-10-17T22:38:49.184Z,23.11
2022-10-17T22:43:53.370Z,23.08
2022-10-17T22:48:56.057Z,23.03
2022-10-17T22:53:58.819Z,23.01
2022-10-17T22:59:02.844Z,22.97
2022-10-17T23:04:05.624Z,22.98
2022-10-17T23:09:08.351Z,22.95
2022-10-17T23:14:12.385Z,22.95
2022-10-17T23:19:15.043Z,22.93
2022-10-17T23:24:17.908Z,22.94
2022-10-17T23:29:22.065Z,22.88
2022-10-17T23:34:24.746Z,22.90
2022-10-17T23:39:27.469Z,22.89
2022-10-17T23:44:31.432Z,22.86
2022-10-17T23:49:34.109Z,22.85
2022-10-17T23:54:36.781Z,22.82
2022-10-17T23:59:40.882Z,22.81
